Roosevelt, Oklahoma
Current Conditions -  °F | °C
As of 2:53 PM on Saturday 20 Dec 2014 (Local Time) from KHBR Reporting Station
Overcast Overcast  
Wind Chill: 40°   Ceiling: 2000
Heat Index: 45°   Visibility: 9mi
Dew Point: 40°   Wind: 10mph
Humidity: 82%   Direction: 180°S
Pressure: 30.12"   Gusts: NA
Location:  34.85°N, 99.02°W
Report Text: KHBR 202053Z AUTO 18009KT 9SM OVC020 07/04 A3012 RMK AO2 SLP203 T00720044 56020
Loading
Personal Weather Stations






























Interactive Weather Map New forecast layout! Learn more

10-Day Weather Forecast

Advertisements
Track Severe Weather on mobile